Bei Facebook empfehlenBei Twitter postenGoogle plusPinterest

Das Wetter im Erzgebirge am 01.04.2017

Wetter und Klima am 01.04.2017 Holzhau im Erzgebirge (630m ü.NN)
Letzte gemessene Temperatur und Uhrzeit der Messung23:45:00 Uhr7.40 °C
Temperatur (Maximum / Höchstwert) und Uhrzeit der Messung14:45:00 Uhr19.50 °C
Temperatur (Minimum / Tiefstwert) und Uhrzeit der Messung06:45:005.40 °C
Errechneter Absolutwert der Temperaturschwankungen zwischen Tmin und Tmax des Tages14.10 K
Errechnete Tagesmitteltemperatur11.78646 °C
Gesamt - Niederschlag des Tages (in flüssiger Form)0.00 Liter / m²
Luftdruck (Maximum / Höchstwert) und Zeitpunkt der Messung00:30:00 Uhr1012.50 hPa
Luftdruck (Minimum / Tiefstwert) und Zeitpunkt der Messung19:00:00 Uhr1007.10 hPa
Errechneter Absolutwert der Luftdruckschwankungen des Tages5.40 hPa
Höchste gemessene Windgeschwindigkeit und Uhrzeit der Messung14:45:00 Uhr183.60 km/h
Errechnete Windhäufigkeit in Relation zu den Messwerten des Tages39.58333 %
Niedrigste Windkühle (Windchill) und Zeitpunkt der Messung06:45:00 Uhr5.40 °C
Taupunkt (Maximum / Höchstwert) und Uhrzeit der Messung09:30:00 Uhr8.80 °C
Taupunkt (Minimum / Tiefstwert) und Uhrzeit der Messung06:15:003.60 °C
Anzahl der automatisch eingelesenen Messwerte 96

Detaillierte Wetter- und Klima- Messwerte für den 01.04.2017 in Holzhau im Erzgebirge (630m ü.NN)
ZeitTemperaturLuftdruckRel. LuftfeuchteWindWindrichtungWindchillTaupunktNiederschlag l/m²
23:45:007.40 °C1008.30 hPa84.00 %4.90 °C 
23:30:007.60 °C1008.10 hPa82.00 %4.70 °C 
23:15:008.10 °C1008.20 hPa81.00 %5.00 °C 
23:00:008.30 °C1008.40 hPa81.00 %5.20 °C 
22:45:008.50 °C1008.30 hPa81.00 %5.40 °C 
22:30:008.50 °C1008.10 hPa80.00 %5.30 °C 
22:15:008.10 °C1007.60 hPa82.00 %3.60 km/hSO8.10 °C5.20 °C 
22:00:007.40 °C1007.70 hPa82.00 %4.50 °C 
21:45:007.10 °C1007.70 hPa81.00 %4.10 °C 
21:30:007.40 °C1007.60 hPa80.00 %4.20 °C 
21:15:007.80 °C1007.70 hPa79.00 %4.40 °C 
21:00:008.10 °C1007.70 hPa76.00 %4.10 °C 
20:45:008.60 °C1007.60 hPa75.00 %4.40 °C 
20:30:009.00 °C1007.50 hPa75.00 %4.80 °C 
20:15:009.50 °C1007.50 hPa73.00 %4.90 °C 
20:00:009.80 °C1007.30 hPa70.00 %4.60 °C 
19:45:0010.80 °C1007.30 hPa67.00 %4.90 °C 
19:30:0011.80 °C1007.20 hPa63.00 %5.00 °C 
19:15:0013.00 °C1007.30 hPa60.00 %5.40 °C 
19:00:0014.80 °C1007.10 hPa56.00 %6.10 °C 
18:45:0016.30 °C1007.30 hPa51.00 %6.20 °C 
18:30:0017.40 °C1007.50 hPa50.00 %6.90 °C 
18:15:0018.00 °C1007.60 hPa49.00 %7.10 °C 
18:00:0018.60 °C1007.50 hPa47.00 %7.10 °C 
17:45:0018.70 °C1007.70 hPa47.00 %7.20 °C 
17:30:0018.50 °C1007.70 hPa48.00 %7.30 °C 
17:15:0018.80 °C1007.80 hPa47.00 %2.16 km/hSSW18.80 °C7.30 °C 
17:00:0018.90 °C1008.00 hPa47.00 %2.52 km/hSSW18.90 °C7.40 °C 
16:45:0019.20 °C1008.00 hPa46.00 %1.80 km/hSSW19.20 °C7.30 °C 
16:30:0019.10 °C1008.20 hPa47.00 %1.80 km/hOSO19.10 °C7.50 °C 
16:15:0019.10 °C1008.20 hPa46.00 %3.24 km/hS19.10 °C7.20 °C 
16:00:0019.10 °C1008.40 hPa47.00 %2.16 km/hSO19.10 °C7.50 °C 
15:45:0019.30 °C1008.30 hPa47.00 %1.80 km/hWSW19.30 °C7.70 °C 
15:30:0019.20 °C1008.50 hPa47.00 %7.60 °C 
15:15:0019.30 °C1008.60 hPa48.00 %6.84 km/hOSO20.10 °C8.00 °C 
15:00:0019.00 °C1008.70 hPa46.00 %10.80 km/hSO19.30 °C7.10 °C 
14:45:0019.50 °C1008.90 hPa46.00 %183.60 km/hSO16.90 °C7.60 °C 
14:30:0019.20 °C1008.90 hPa47.00 %0.72 km/hSO19.20 °C7.60 °C 
14:15:0019.10 °C1008.90 hPa47.00 %7.50 °C 
14:00:0018.90 °C1009.10 hPa47.00 %0.72 km/hOSO18.90 °C7.40 °C 
13:45:0019.30 °C1008.90 hPa47.00 %3.96 km/hSO19.30 °C7.70 °C 
13:30:0019.30 °C1009.00 hPa46.00 %2.88 km/hS19.30 °C7.40 °C 
13:15:0019.10 °C1009.00 hPa47.00 %5.76 km/hSO20.00 °C7.50 °C 
13:00:0019.10 °C1009.10 hPa50.00 %0.36 km/hNO19.10 °C8.40 °C 
12:45:0018.60 °C1009.40 hPa51.00 %6.48 km/hOSO19.30 °C8.30 °C 
12:30:0018.10 °C1009.60 hPa50.00 %8.64 km/hOSO18.40 °C7.50 °C 
12:15:0018.00 °C1009.60 hPa50.00 %1.44 km/hS18.00 °C7.40 °C 
12:00:0018.10 °C1009.40 hPa53.00 %14.40 km/hSO17.90 °C8.40 °C 
11:45:0017.40 °C1009.50 hPa54.00 %8.00 °C 
11:30:0017.30 °C1009.60 hPa55.00 %5.40 km/hOSO18.00 °C8.20 °C 
11:15:0017.30 °C1009.60 hPa55.00 %1.44 km/hSO17.30 °C8.20 °C 
11:00:0016.80 °C1009.60 hPa58.00 %8.50 °C 
10:45:0016.10 °C1009.70 hPa59.00 %1.44 km/hSO16.10 °C8.10 °C 
10:30:0015.80 °C1009.70 hPa62.00 %6.48 km/hSO16.10 °C8.50 °C 
10:15:0015.10 °C1009.80 hPa63.00 %4.32 km/hSO15.10 °C8.10 °C 
10:00:0014.60 °C1009.80 hPa65.00 %6.84 km/hOSO14.60 °C8.10 °C 
09:45:0014.10 °C1009.80 hPa67.00 %7.20 km/hSO14.00 °C8.10 °C 
09:30:0013.50 °C1009.80 hPa73.00 %8.80 °C 
09:15:0012.40 °C1009.80 hPa77.00 %0.36 km/hONO12.40 °C8.50 °C 
09:00:0011.10 °C1009.80 hPa83.00 %8.30 °C 
08:45:009.70 °C1009.80 hPa87.00 %7.60 °C 
08:30:008.30 °C1009.90 hPa89.00 %6.60 °C 
08:15:007.20 °C1010.30 hPa89.00 %5.50 °C 
08:00:006.60 °C1010.60 hPa90.00 %5.10 °C 
07:45:005.90 °C1010.60 hPa89.00 %4.20 °C 
07:30:005.60 °C1010.70 hPa89.00 %3.90 °C 
07:15:005.60 °C1010.60 hPa89.00 %3.90 °C 
07:00:005.50 °C1010.70 hPa89.00 %3.80 °C 
06:45:005.40 °C1010.80 hPa89.00 %3.70 °C 
06:30:005.50 °C1010.90 hPa88.00 %3.70 °C 
06:15:005.60 °C1010.70 hPa87.00 %3.60 °C 
06:00:006.10 °C1010.70 hPa87.00 %4.10 °C 
05:45:006.40 °C1010.70 hPa87.00 %4.40 °C 
05:30:006.50 °C1010.80 hPa87.00 %4.50 °C 
05:15:006.90 °C1010.80 hPa87.00 %4.90 °C 
05:00:006.90 °C1010.80 hPa87.00 %4.90 °C 
04:45:006.80 °C1010.80 hPa87.00 %4.80 °C 
04:30:007.10 °C1011.00 hPa87.00 %1.80 km/hSO7.10 °C5.10 °C 
04:15:007.10 °C1011.20 hPa88.00 %1.80 km/hSO7.10 °C5.30 °C 
04:00:006.80 °C1011.40 hPa87.00 %4.80 °C 
03:45:006.80 °C1011.40 hPa87.00 %4.80 °C 
03:30:006.90 °C1011.50 hPa87.00 %2.88 km/hSO6.90 °C4.90 °C 
03:15:007.10 °C1011.60 hPa87.00 %2.52 km/hSO7.10 °C5.10 °C 
03:00:006.90 °C1011.70 hPa87.00 %4.90 °C 
02:45:007.00 °C1011.70 hPa87.00 %5.00 °C 
02:30:006.80 °C1011.70 hPa87.00 %1.08 km/hOSO6.80 °C4.80 °C 
02:15:006.90 °C1011.90 hPa87.00 %4.90 °C 
02:00:006.90 °C1011.90 hPa87.00 %4.90 °C 
01:45:006.70 °C1011.90 hPa87.00 %2.88 km/hSO6.70 °C4.70 °C 
01:30:006.60 °C1012.20 hPa87.00 %2.16 km/hSO6.60 °C4.60 °C 
01:15:006.50 °C1012.30 hPa85.00 %4.20 °C 
01:00:006.90 °C1012.40 hPa85.00 %4.60 °C 
00:45:007.30 °C1012.40 hPa85.00 %5.00 °C 
00:30:007.30 °C1012.50 hPa84.00 %1.44 km/hOSO7.30 °C4.80 °C 
00:15:007.60 °C1012.50 hPa84.00 %5.10 °C 
00:00:007.90 °C1012.50 hPa83.00 %2.16 km/hSO7.90 °C5.20 °C 

Permanenter Link zu dieser Seite: Wetter im Erzgebirge am 01.04.2017
Performance-Info: Die Erstellung der Seite / Statistik(en) / Tabelle(n) erforderte 5 Datenbankserver-Abfrage(n) und dauerte 102 Millisekunden. (Dieser Messwert ist von der Gesamt-Auslastung des Servers abhängig.)
Erzgebirge - Wetter | Erzgebirge - Wetter (Mobilgeräte) | Komplette Klimadatenbank